Time;durP1;ratioP1;P1;durP2;ratioP2;P2;SDS_P1;SDS_P2;PMS_P1;PMS_P2;Temp;Humidity;BMP_temperature;BMP_pressure;BME280_temperature;BME280_humidity;BME280_pressure;Samples;Min_cycle;Max_cycle;Signal;HPM_P1;HPM_P2
2022/01/12 00:02:12;;;;;;;14.15;6.55;;;;;;;-2.18;71.38;101879.69;5025690;28;20078;-74
2022/01/12 00:04:38;;;;;;;9.75;5.32;;;;;;;-2.63;71.02;101890.84;5032250;28;20384;-73
2022/01/12 00:07:04;;;;;;;9.30;5.38;;;;;;;-1.95;70.52;101907.13;5023602;28;20034;-73
2022/01/12 00:09:29;;;;;;;14.10;7.53;;;;;;;-2.02;69.25;101887.78;5024182;28;20060;-73
2022/01/12 00:11:55;;;;;;;8.80;5.57;;;;;;;-2.46;69.16;101907.56;5026880;28;20068;-74
2022/01/12 00:14:20;;;;;;;9.57;5.20;;;;;;;-2.40;69.81;101908.94;5023684;28;20091;-73
2022/01/12 00:16:50;;;;;;;10.43;5.40;;;;;;;-2.01;69.28;101909.25;5026133;28;20115;-72
2022/01/12 00:19:15;;;;;;;12.32;4.97;;;;;;;-2.02;69.68;101916.06;5025788;28;20092;-73
2022/01/12 00:21:41;;;;;;;12.35;6.78;;;;;;;-1.79;69.08;101916.88;5026611;28;20069;-71
2022/01/12 00:24:08;;;;;;;12.98;7.00;;;;;;;-2.38;69.75;101929.63;5017816;28;20033;-74
2022/01/12 00:35:11;;;;;;;15.23;5.25;;;;;;;-2.22;69.01;101927.44;5024806;28;20065;-72
2022/01/12 00:37:36;;;;;;;8.68;5.72;;;;;;;-2.26;68.18;101909.09;5005728;28;20033;-73
2022/01/12 00:40:02;;;;;;;10.48;5.10;;;;;;;-2.82;69.09;101907.41;5021733;28;20041;-72
2022/01/12 00:42:28;;;;;;;15.60;6.05;;;;;;;-2.44;68.45;101908.56;5026253;28;20044;-72
2022/01/12 00:44:54;;;;;;;12.75;5.93;;;;;;;-2.50;68.82;101918.41;5027117;28;20445;-74
2022/01/12 00:47:20;;;;;;;10.68;5.57;;;;;;;-2.85;68.71;101914.88;5009426;28;20045;-71
2022/01/12 00:49:45;;;;;;;8.45;4.68;;;;;;;-2.58;69.41;101928.97;5025752;28;20107;-72
2022/01/12 00:52:11;;;;;;;11.05;4.70;;;;;;;-2.94;69.48;101921.88;5022568;28;20044;-72
2022/01/12 00:54:37;;;;;;;9.88;4.53;;;;;;;-3.24;69.95;101898.13;5022062;28;20116;-72
2022/01/12 00:57:03;;;;;;;11.77;5.38;;;;;;;-3.32;70.55;101904.34;5023264;28;20158;-72
2022/01/12 00:59:28;;;;;;;10.35;6.70;;;;;;;-3.01;69.85;101919.59;5022266;28;20073;-75
2022/01/12 01:01:54;;;;;;;9.95;5.15;;;;;;;-2.82;69.98;101893.69;5027518;28;20392;-72
2022/01/12 01:04:20;;;;;;;8.80;5.20;;;;;;;-2.82;69.24;101922.81;5023825;28;20551;-76
2022/01/12 01:06:45;;;;;;;13.27;5.22;;;;;;;-3.12;69.65;101899.88;5023750;28;20037;-73
2022/01/12 01:09:11;;;;;;;8.75;5.45;;;;;;;-2.68;69.07;101898.22;5028121;28;20041;-72
2022/01/12 01:11:36;;;;;;;7.75;4.85;;;;;;;-2.77;68.79;101907.78;5028038;28;20484;-72
2022/01/12 01:14:12;;;;;;;11.35;5.55;;;;;;;-3.09;69.92;101915.50;5025422;28;20029;-79
2022/01/12 01:25:30;;;;;;;9.55;4.93;;;;;;;-3.26;69.72;101914.19;5011645;28;20065;-72
2022/01/12 01:27:48;;;;;;;12.98;7.75;;;;;;;-3.07;69.10;101898.56;5046230;28;20110;-73
2022/01/12 01:30:16;;;;;;;9.38;4.47;;;;;;;-2.56;67.31;101916.25;5045224;28;20448;-72
2022/01/12 01:32:42;;;;;;;13.68;5.93;;;;;;;-2.77;66.92;101915.47;5052387;28;20488;-72
2022/01/12 01:35:08;;;;;;;7.70;4.03;;;;;;;-2.85;66.79;101901.16;5050979;28;20128;-73
2022/01/12 01:37:34;;;;;;;7.95;3.53;;;;;;;-3.29;66.55;101894.31;5049397;28;20041;-72
2022/01/12 01:40:14;;;;;;;5.97;3.22;;;;;;;-3.48;67.51;101906.44;5045750;28;20049;-72
2022/01/12 01:53:22;;;;;;;6.75;2.42;;;;;;;-3.48;65.11;101909.00;5014789;27;20619;-72
2022/01/12 01:55:49;;;;;;;6.57;4.25;;;;;;;-3.64;64.53;101901.75;5020312;28;20050;-71
2022/01/12 01:58:15;;;;;;;9.15;4.80;;;;;;;-3.19;64.33;101916.47;5012517;28;20478;-71
2022/01/12 02:00:41;;;;;;;10.18;4.85;;;;;;;-3.48;63.59;101927.88;5010258;28;20054;-72
2022/01/12 02:03:08;;;;;;;6.32;3.20;;;;;;;-3.69;63.99;101938.94;5009754;28;20510;-71
2022/01/12 02:05:33;;;;;;;7.97;3.45;;;;;;;-3.69;64.30;101927.00;5013542;28;20030;-72
2022/01/12 02:08:00;;;;;;;5.65;3.92;;;;;;;-3.69;64.11;101931.25;5011139;28;20504;-74
2022/01/12 02:10:26;;;;;;;7.35;4.18;;;;;;;-3.44;64.36;101922.22;5017642;28;20466;-73
2022/01/12 02:15:17;;;;;;;6.65;3.50;;;;;;;-2.92;63.40;101924.56;5055084;28;20609;-75
2022/01/12 02:40:24;;;;;;;5.50;3.90;;;;;;;-3.76;63.68;101934.09;5034579;28;20176;-70
2022/01/12 02:43:00;;;;;;;8.02;4.88;;;;;;;-3.79;63.81;101944.06;5021855;28;20145;-76
2022/01/12 02:51:07;;;;;;;8.27;3.67;;;;;;;-3.78;64.30;101956.16;5020074;28;20037;-72
2022/01/12 02:53:40;;;;;;;6.43;3.25;;;;;;;-3.72;64.41;101964.31;5018304;28;20033;-72
2022/01/12 02:56:10;;;;;;;7.55;3.88;;;;;;;-3.58;64.18;101966.38;5018333;28;20085;-74
2022/01/12 02:58:37;;;;;;;13.80;3.92;;;;;;;-3.69;64.28;101944.06;5014362;28;20469;-71
2022/01/12 03:03:33;;;;;;;7.00;4.25;;;;;;;-3.57;65.29;101962.13;5020802;28;20050;-72
2022/01/12 03:06:04;;;;;;;7.18;3.67;;;;;;;-3.70;64.51;101966.28;5019687;28;20033;-72
2022/01/12 03:08:36;;;;;;;7.68;4.93;;;;;;;-3.23;63.84;101969.25;5021917;28;20052;-72
2022/01/12 03:11:05;;;;;;;8.07;3.63;;;;;;;-3.70;64.31;101949.97;5020691;28;20900;-72
2022/01/12 03:13:31;;;;;;;8.18;3.30;;;;;;;-3.73;64.28;101949.72;5019086;28;20112;-72
2022/01/12 03:15:57;;;;;;;6.50;3.65;;;;;;;-3.45;63.94;101940.03;5017557;28;20080;-72
2022/01/12 03:18:23;;;;;;;11.50;4.68;;;;;;;-3.56;64.19;101961.34;5025958;28;20025;-71
2022/01/12 03:20:48;;;;;;;10.13;4.75;;;;;;;-3.31;64.18;101966.81;5018450;28;20499;-74
2022/01/12 03:23:15;;;;;;;8.02;4.10;;;;;;;-3.71;64.84;101938.81;5017564;28;20039;-72
2022/01/12 03:25:41;;;;;;;8.85;4.50;;;;;;;-3.58;64.69;101948.44;5020174;28;20465;-72
2022/01/12 03:28:07;;;;;;;10.50;5.07;;;;;;;-3.33;64.22;101953.84;5022340;28;20056;-72
2022/01/12 03:36:23;;;;;;;6.78;4.50;;;;;;;-2.70;62.34;101957.94;5019897;28;20041;-72
2022/01/12 03:38:49;;;;;;;10.98;4.95;;;;;;;-3.63;64.10;101949.69;5018197;28;20128;-78
2022/01/12 03:41:26;;;;;;;8.85;4.72;;;;;;;-3.39;63.76;101961.06;5019961;28;20111;-73
2022/01/12 03:43:53;;;;;;;9.57;4.50;;;;;;;-2.84;63.64;101974.84;5014606;28;20042;-74
2022/01/12 03:46:22;;;;;;;10.20;5.13;;;;;;;-3.34;64.25;101953.75;5017604;28;20575;-73
2022/01/12 03:48:48;;;;;;;10.88;4.63;;;;;;;-3.71;64.47;101956.75;5002384;28;20540;-72
2022/01/12 03:51:13;;;;;;;10.73;5.97;;;;;;;-3.46;63.87;101989.56;5004790;28;20060;-73
2022/01/12 03:53:39;;;;;;;9.77;4.38;;;;;;;-3.47;63.28;101970.69;5005539;28;20033;-72
2022/01/12 03:56:04;;;;;;;7.78;4.50;;;;;;;-3.43;64.05;101962.47;5004306;28;20038;-74
2022/01/12 03:58:30;;;;;;;11.15;5.47;;;;;;;-3.27;63.07;101990.28;5003656;28;20189;-74
2022/01/12 04:00:55;;;;;;;11.63;5.65;;;;;;;-3.29;63.61;101968.72;5001930;28;21322;-72
2022/01/12 04:03:21;;;;;;;7.40;4.63;;;;;;;-3.33;63.48;101986.31;5019843;28;20029;-73
2022/01/12 04:08:22;;;;;;;7.60;5.07;;;;;;;-3.26;63.15;101994.63;5005601;28;20044;-72
2022/01/12 04:10:52;;;;;;;18.58;7.03;;;;;;;-3.38;62.40;101978.25;5003580;28;20089;-73
2022/01/12 04:13:21;;;;;;;9.65;6.18;;;;;;;-3.54;63.21;101996.63;5007347;28;20041;-72
2022/01/12 04:15:50;;;;;;;10.07;4.60;;;;;;;-3.38;62.89;102000.44;5004422;28;20116;-72
2022/01/12 04:18:16;;;;;;;8.40;5.15;;;;;;;-3.47;63.78;102003.16;5002342;28;20609;-73
2022/01/12 04:20:50;;;;;;;14.77;5.82;;;;;;;-3.67;63.51;101994.72;5005221;28;20025;-72
2022/01/12 04:23:19;;;;;;;10.10;4.78;;;;;;;-3.39;63.65;102012.41;5004379;28;20117;-72
2022/01/12 04:25:51;;;;;;;7.28;4.63;;;;;;;-3.62;63.20;102003.69;5003730;28;20046;-72
2022/01/12 04:28:18;;;;;;;10.50;5.80;;;;;;;-3.62;63.42;102005.38;5004083;28;20097;-71
2022/01/12 04:30:45;;;;;;;10.48;6.00;;;;;;;-3.61;63.17;102009.72;5001772;28;20054;-73
2022/01/12 04:33:10;;;;;;;11.18;5.85;;;;;;;-3.37;63.20;102008.28;5003141;28;20041;-75
2022/01/12 04:35:37;;;;;;;9.93;4.45;;;;;;;-3.59;63.16;101999.59;5004232;28;20062;-73
2022/01/12 04:38:04;;;;;;;11.38;5.60;;;;;;;-3.35;63.59;102003.25;5004142;28;20504;-72
2022/01/12 04:40:30;;;;;;;9.05;5.45;;;;;;;-3.42;62.95;102007.00;5003742;28;20049;-74
2022/01/12 04:42:56;;;;;;;6.97;4.88;;;;;;;-3.17;63.28;102014.13;5003782;28;20072;-73
2022/01/12 04:50:29;;;;;;;10.00;5.50;;;;;;;-3.58;63.59;102020.25;5004709;28;20046;-73
2022/01/12 04:55:21;;;;;;;13.23;5.25;;;;;;;-3.41;64.28;102008.81;5031900;28;20612;-73
2022/01/12 04:57:47;;;;;;;10.30;5.03;;;;;;;-3.32;63.60;102030.09;5017982;28;20049;-81
2022/01/12 05:00:16;;;;;;;10.48;5.70;;;;;;;-3.62;64.01;102018.19;5018073;28;20115;-74
2022/01/12 05:08:22;;;;;;;13.68;5.40;;;;;;;-3.48;64.49;102034.72;5020483;28;20600;-73
2022/01/12 05:13:19;;;;;;;12.75;6.28;;;;;;;-3.44;63.63;102042.81;5036170;28;20620;-71
2022/01/12 05:17:20;;;;;;;9.20;4.82;;;;;;;-3.40;63.93;102052.53;5019454;28;20615;-73
2022/01/12 05:19:45;;;;;;;8.88;4.45;;;;;;;-3.48;64.21;102030.50;5025145;28;20048;-71
2022/01/12 05:22:11;;;;;;;13.50;5.07;;;;;;;-3.47;64.08;102019.44;5027934;28;20049;-72
2022/01/12 05:24:36;;;;;;;11.80;7.50;;;;;;;-3.54;64.54;102040.22;5027388;28;20060;-72
2022/01/12 05:27:02;;;;;;;8.73;5.05;;;;;;;-3.42;63.83;102063.44;5035157;28;20060;-72
2022/01/12 05:29:27;;;;;;;12.13;6.03;;;;;;;-3.08;64.20;102061.97;5028181;28;20385;-72
2022/01/12 05:31:53;;;;;;;10.23;5.32;;;;;;;-3.52;63.80;102043.81;5031070;28;20497;-72
2022/01/12 05:34:18;;;;;;;9.55;5.15;;;;;;;-3.34;64.02;102062.41;5026884;28;20428;-72
2022/01/12 05:36:44;;;;;;;10.57;5.95;;;;;;;-3.38;64.53;102052.66;5034104;28;20049;-72
2022/01/12 05:39:09;;;;;;;9.68;5.45;;;;;;;-2.81;63.82;102071.03;5031886;28;20100;-78
2022/01/12 05:41:35;;;;;;;8.00;5.05;;;;;;;-3.00;63.56;102078.00;5031421;28;20037;-73
2022/01/12 05:44:05;;;;;;;11.70;5.43;;;;;;;-2.60;62.43;102061.56;5026082;28;20492;-72
2022/01/12 05:46:31;;;;;;;17.58;7.32;;;;;;;-3.19;62.71;102055.06;5028946;28;20045;-74
2022/01/12 05:51:40;;;;;;;6.55;4.57;;;;;;;-3.37;63.61;102066.38;5026944;28;20532;-72
2022/01/12 05:54:06;;;;;;;14.65;7.20;;;;;;;-2.91;63.90;102065.03;5032478;28;20033;-72
2022/01/12 05:56:32;;;;;;;10.70;6.15;;;;;;;-2.71;63.58;102087.19;5009188;28;20040;-73
2022/01/12 05:58:57;;;;;;;12.32;6.82;;;;;;;-3.07;63.51;102058.63;5031336;28;20404;-71
2022/01/12 06:01:23;;;;;;;13.00;7.97;;;;;;;-3.10;63.49;102076.34;5024071;28;20558;-72
2022/01/12 06:03:49;;;;;;;11.30;6.20;;;;;;;-3.51;63.64;102090.91;5030098;28;20402;-72
2022/01/12 06:06:14;;;;;;;16.08;8.85;;;;;;;-3.20;63.70;102094.38;5033730;28;20103;-72
2022/01/12 06:08:40;;;;;;;19.13;7.97;;;;;;;-2.90;63.55;102107.88;5033980;28;20041;-71
2022/01/12 06:11:07;;;;;;;16.17;7.63;;;;;;;-2.63;62.96;102097.28;5035341;28;20053;-76
2022/01/12 06:13:32;;;;;;;11.85;7.32;;;;;;;-3.13;62.75;102113.75;5031087;28;20037;-76
2022/01/12 06:15:58;;;;;;;11.80;6.70;;;;;;;-3.04;62.79;102110.25;5031320;28;20362;-72
2022/01/12 06:18:23;;;;;;;21.17;12.07;;;;;;;-2.81;63.06;102114.69;5030122;28;20091;-73
2022/01/12 06:20:49;;;;;;;15.98;8.73;;;;;;;-3.14;62.53;102096.53;5035474;28;20021;-75
2022/01/12 06:23:14;;;;;;;20.80;10.95;;;;;;;-3.25;62.67;102121.31;5027027;28;20057;-73
2022/01/12 06:25:40;;;;;;;16.52;8.95;;;;;;;-3.32;62.24;102103.63;5030757;28;20488;-72
2022/01/12 06:28:22;;;;;;;15.50;7.95;;;;;;;-3.21;61.34;102110.50;5022414;28;20041;-71
2022/01/12 06:33:21;;;;;;;11.77;6.03;;;;;;;-3.40;62.00;102124.38;5052737;28;20614;-72
2022/01/12 06:35:46;;;;;;;13.95;5.78;;;;;;;-3.37;61.64;102136.59;5025106;28;20036;-72
2022/01/12 06:38:11;;;;;;;13.45;7.40;;;;;;;-3.17;61.25;102138.25;5023936;28;20077;-74
2022/01/12 06:40:37;;;;;;;15.13;8.07;;;;;;;-3.27;61.84;102128.88;5018697;28;20045;-72
2022/01/12 06:43:03;;;;;;;31.55;8.68;;;;;;;-3.63;61.88;102121.56;5012523;28;20046;-73
2022/01/12 06:45:28;;;;;;;12.73;5.35;;;;;;;-3.14;61.19;102123.09;5010880;28;20042;-75
2022/01/12 06:47:54;;;;;;;10.20;5.53;;;;;;;-3.01;61.33;102143.88;5018728;28;20480;-72
2022/01/12 06:50:26;;;;;;;11.57;8.27;;;;;;;-3.32;60.59;102126.72;5007986;28;20045;-72
2022/01/12 06:52:51;;;;;;;12.15;7.10;;;;;;;-3.43;61.56;102152.34;5010179;28;20109;-79
2022/01/12 06:55:17;;;;;;;18.50;10.02;;;;;;;-3.09;60.91;102154.28;5011980;28;20034;-76
2022/01/12 06:57:42;;;;;;;12.23;6.88;;;;;;;-2.51;60.30;102155.56;5013244;28;20093;-73
2022/01/12 07:00:08;;;;;;;11.88;6.55;;;;;;;-3.16;59.57;102132.34;5016140;28;20484;-74
2022/01/12 07:03:23;;;;;;;11.25;5.90;;;;;;;-2.84;58.94;102160.66;5055508;28;20610;-72
2022/01/12 07:05:48;;;;;;;15.50;9.05;;;;;;;-3.09;58.32;102156.84;5056051;28;20032;-74
2022/01/12 07:08:15;;;;;;;11.82;6.43;;;;;;;-3.06;58.78;102159.69;5055677;28;20102;-72
2022/01/12 07:10:40;;;;;;;13.63;7.35;;;;;;;-3.15;59.04;102140.94;5053615;28;20047;-74
2022/01/12 07:13:10;;;;;;;16.33;7.82;;;;;;;-3.06;58.85;102159.69;5054436;28;20089;-72
2022/01/12 07:15:37;;;;;;;12.98;6.43;;;;;;;-3.00;57.97;102155.97;5050566;28;20037;-72
2022/01/12 07:18:06;;;;;;;11.82;7.03;;;;;;;-3.36;59.62;102156.34;5035462;28;20392;-78
2022/01/12 07:20:31;;;;;;;14.85;7.88;;;;;;;-3.29;58.83;102133.00;5040587;28;20128;-71
2022/01/12 07:25:22;;;;;;;19.25;10.45;;;;;;;-3.28;58.55;102162.09;5022212;28;20636;-72
2022/01/12 07:27:48;;;;;;;20.00;9.40;;;;;;;-3.26;58.82;102171.72;5016810;28;20732;-73
2022/01/12 07:30:13;;;;;;;15.60;9.63;;;;;;;-3.20;59.09;102156.84;5016393;28;20385;-77
2022/01/12 07:32:39;;;;;;;13.73;7.55;;;;;;;-2.95;58.27;102160.56;5017497;28;20045;-72
2022/01/12 07:35:05;;;;;;;44.22;18.95;;;;;;;-2.47;57.52;102160.19;5016776;28;20058;-73
2022/01/12 07:37:31;;;;;;;16.45;9.63;;;;;;;-2.82;57.35;102174.53;5015311;28;20129;-73
2022/01/12 07:39:58;;;;;;;13.07;7.07;;;;;;;-2.93;57.84;102172.75;5013518;28;20081;-72
2022/01/12 07:42:24;;;;;;;12.32;6.38;;;;;;;-2.80;58.15;102157.56;5016934;28;20038;-77
2022/01/12 07:47:22;;;;;;;23.83;14.40;;;;;;;-2.83;58.37;102185.59;5019500;28;20962;-73
2022/01/12 07:49:48;;;;;;;11.98;8.27;;;;;;;-2.99;58.00;102155.16;5020745;28;20060;-73
2022/01/12 07:52:13;;;;;;;13.55;7.78;;;;;;;-2.65;57.92;102186.19;5019123;28;20046;-72
2022/01/12 07:54:39;;;;;;;48.25;6.82;;;;;;;-2.71;57.45;102192.50;5019262;28;20046;-73
2022/01/12 07:57:04;;;;;;;11.80;6.80;;;;;;;-2.65;57.25;102177.59;5011767;28;20371;-73
2022/01/12 07:59:29;;;;;;;10.05;6.13;;;;;;;-3.19;57.37;102176.59;5011718;28;20390;-76
2022/01/12 08:01:55;;;;;;;11.80;6.78;;;;;;;-3.17;57.29;102186.13;5011396;28;20474;-71
2022/01/12 08:04:20;;;;;;;13.70;8.23;;;;;;;-3.19;57.95;102186.88;5008473;28;20463;-74
2022/01/12 08:09:23;;;;;;;14.48;7.38;;;;;;;-3.13;57.60;102183.94;5048551;28;21190;-71
2022/01/12 08:11:48;;;;;;;14.23;6.85;;;;;;;-3.06;58.16;102200.75;5015651;28;20026;-74
2022/01/12 08:14:15;;;;;;;18.02;6.65;;;;;;;-2.95;57.69;102192.28;5038024;28;20645;-76
2022/01/12 08:16:44;;;;;;;10.52;4.22;;;;;;;-3.10;58.06;102214.09;5014211;28;20077;-73
2022/01/12 08:19:09;;;;;;;35.20;14.77;;;;;;;-2.88;57.46;102189.47;5013678;28;20057;-75
2022/01/12 08:21:35;;;;;;;13.25;8.02;;;;;;;-2.94;57.13;102214.63;5015704;28;20033;-76
2022/01/12 08:24:00;;;;;;;19.70;12.30;;;;;;;-2.91;57.51;102207.16;5016432;28;20110;-74
2022/01/12 08:26:26;;;;;;;15.98;8.52;;;;;;;-2.82;57.01;102230.16;5010570;28;20053;-73
2022/01/12 08:28:52;;;;;;;12.10;6.15;;;;;;;-2.73;57.34;102194.94;5013866;28;20053;-74
2022/01/12 08:31:20;;;;;;;23.42;9.80;;;;;;;-2.92;58.22;102197.66;5016247;28;20049;-73
2022/01/12 08:33:47;;;;;;;18.63;9.57;;;;;;;-1.78;60.08;102183.66;5014489;28;20069;-75
2022/01/12 08:36:12;;;;;;;13.02;7.32;;;;;;;1.14;73.91;102192.78;5013889;28;20125;-76
2022/01/12 08:38:39;;;;;;;21.75;11.50;;;;;;;0.70;63.67;102185.50;5015851;28;20049;-75
2022/01/12 08:41:22;;;;;;;10.70;5.47;;;;;;;-0.18;57.73;102198.25;5031480;27;20627;-74
2022/01/12 08:43:48;;;;;;;17.80;8.65;;;;;;;-1.20;55.24;102228.47;5035937;28;20045;-74
2022/01/12 08:46:13;;;;;;;24.42;10.48;;;;;;;-1.96;55.67;102222.63;5037244;28;20060;-74
2022/01/12 08:48:40;;;;;;;15.55;9.85;;;;;;;0.01;59.34;102209.09;5030895;28;20499;-74
2022/01/12 08:51:06;;;;;;;12.65;9.85;;;;;;;-1.62;56.52;102232.97;5043631;28;20091;-73
2022/01/12 08:53:31;;;;;;;13.35;8.40;;;;;;;-0.94;56.49;102205.59;5029123;28;20100;-76
2022/01/12 08:55:57;;;;;;;14.30;8.43;;;;;;;-0.47;55.23;102227.94;5047389;28;20044;-75
2022/01/12 08:58:22;;;;;;;16.58;8.88;;;;;;;1.81;59.42;102179.91;5052941;28;20132;-74
2022/01/12 09:00:48;;;;;;;14.57;9.18;;;;;;;-0.30;52.88;102201.75;5052800;28;20052;-74
2022/01/12 09:03:13;;;;;;;13.43;7.60;;;;;;;-0.82;56.21;102220.19;5050714;28;20088;-75
2022/01/12 09:05:39;;;;;;;16.88;9.02;;;;;;;-1.34;59.22;102196.50;5052629;28;20446;-75
2022/01/12 09:08:06;;;;;;;18.50;9.40;;;;;;;-1.33;54.54;102211.19;5050654;28;20175;-76
2022/01/12 09:10:33;;;;;;;16.95;9.73;;;;;;;-1.58;55.28;102204.13;5049522;28;20498;-75
2022/01/12 09:12:59;;;;;;;16.33;7.85;;;;;;;-2.00;55.45;102209.38;5052026;28;20111;-75
2022/01/12 09:15:25;;;;;;;10.85;5.93;;;;;;;-1.61;55.91;102203.91;5052050;28;20543;-74
2022/01/12 09:17:52;;;;;;;18.85;10.82;;;;;;;-1.52;54.76;102206.31;5048326;28;20116;-75
2022/01/12 09:20:19;;;;;;;13.98;8.73;;;;;;;-1.61;54.99;102211.63;5049180;28;20048;-74
2022/01/12 09:22:44;;;;;;;14.23;7.10;;;;;;;-1.24;54.01;102201.59;5049531;28;20059;-75
2022/01/12 09:25:10;;;;;;;15.70;7.75;;;;;;;-0.56;53.74;102217.88;5046663;28;20763;-75
2022/01/12 09:27:37;;;;;;;20.42;9.48;;;;;;;-0.76;54.48;102221.53;5050295;28;20124;-75
2022/01/12 09:30:06;;;;;;;14.95;8.60;;;;;;;-1.34;54.78;102207.69;5081936;28;20039;-75
2022/01/12 09:32:31;;;;;;;19.88;9.88;;;;;;;-1.52;57.33;102226.91;5051232;28;20045;-74
2022/01/12 09:34:57;;;;;;;11.70;6.68;;;;;;;1.69;58.18;102199.03;5082515;28;20037;-75
2022/01/12 09:37:22;;;;;;;12.48;7.53;;;;;;;0.21;51.98;102228.56;5048425;28;20033;-75
2022/01/12 09:39:48;;;;;;;14.27;7.85;;;;;;;-0.16;52.01;102201.84;5048475;28;20061;-75
2022/01/12 09:42:13;;;;;;;16.33;9.50;;;;;;;-1.13;52.82;102233.31;5053027;28;20468;-75
2022/01/12 09:44:44;;;;;;;15.13;8.30;;;;;;;0.93;52.37;102205.19;5050121;28;20425;-73
2022/01/12 09:47:10;;;;;;;13.32;7.75;;;;;;;-0.36;51.79;102229.66;5050670;28;20135;-74
2022/01/12 09:49:35;;;;;;;13.60;8.07;;;;;;;0.16;53.73;102222.19;5050178;28;20029;-74
2022/01/12 09:52:02;;;;;;;25.45;15.45;;;;;;;-1.39;55.75;102208.13;5035353;28;20129;-75
2022/01/12 09:54:29;;;;;;;29.67;15.32;;;;;;;-0.19;53.57;102224.81;5033976;28;20409;-74
2022/01/12 09:56:57;;;;;;;20.83;12.13;;;;;;;-0.15;53.75;102213.94;5037067;28;20037;-74
2022/01/12 09:59:24;;;;;;;9.48;7.47;;;;;;;-0.35;53.44;102221.16;5037832;28;20120;-86
2022/01/12 10:01:51;;;;;;;12.10;7.38;;;;;;;-0.59;53.22;102224.47;5038554;28;20037;-69
2022/01/12 10:04:17;;;;;;;13.52;8.40;;;;;;;-0.51;52.86;102228.53;5034167;28;20049;-69
2022/01/12 10:06:46;;;;;;;21.35;8.90;;;;;;;-0.68;53.48;102215.28;5034726;28;20048;-69
2022/01/12 10:09:13;;;;;;;12.57;8.27;;;;;;;-0.34;54.43;102219.44;5033122;28;20037;-71
2022/01/12 10:12:00;;;;;;;15.85;9.13;;;;;;;-0.27;53.96;102221.69;5032707;28;20505;-69
2022/01/12 10:14:48;;;;;;;15.75;9.15;;;;;;;-0.14;55.28;102215.72;5033427;28;20041;-70
2022/01/12 10:17:14;;;;;;;16.70;9.80;;;;;;;-0.59;55.01;102201.28;5052251;28;20052;-73
2022/01/12 10:19:40;;;;;;;13.02;7.32;;;;;;;-0.73;54.87;102205.41;5034226;28;20075;-71
2022/01/12 10:22:09;;;;;;;19.92;10.70;;;;;;;-0.46;56.08;102197.13;5035402;28;20034;-73
2022/01/12 10:24:39;;;;;;;15.90;9.30;;;;;;;-0.51;55.39;102200.16;5037389;28;20041;-71
2022/01/12 10:27:17;;;;;;;17.67;10.10;;;;;;;-0.74;55.91;102198.47;5032078;28;20047;-71
2022/01/12 10:29:45;;;;;;;24.38;9.40;;;;;;;-0.47;54.40;102209.91;5016058;28;20103;-70
2022/01/12 10:32:13;;;;;;;13.32;7.22;;;;;;;-1.23;55.85;102224.00;5020332;28;20469;-75
2022/01/12 10:34:44;;;;;;;20.20;11.65;;;;;;;-1.38;56.85;102207.34;5024764;28;20042;-72
2022/01/12 10:37:12;;;;;;;17.00;9.82;;;;;;;-0.98;56.90;102223.31;5024998;28;20037;-71
2022/01/12 10:39:40;;;;;;;18.55;10.23;;;;;;;-0.54;56.25;102223.13;5015913;28;20049;-72
2022/01/12 10:42:08;;;;;;;30.08;10.88;;;;;;;-0.30;55.88;102203.44;5020957;28;20477;-73
2022/01/12 10:44:40;;;;;;;18.27;9.55;;;;;;;-0.20;55.64;102225.63;5016673;28;20076;-69
2022/01/12 10:47:13;;;;;;;15.82;10.30;;;;;;;-0.37;55.95;102198.59;5022070;28;20091;-73
2022/01/12 10:49:42;;;;;;;18.85;11.30;;;;;;;-0.54;56.30;102226.63;5027824;28;20052;-75
2022/01/12 10:52:13;;;;;;;17.02;10.48;;;;;;;-0.34;56.69;102216.88;5034758;28;20491;-77
2022/01/12 10:54:53;;;;;;;18.83;9.20;;;;;;;-0.20;56.09;102218.78;5036019;28;20488;-73
2022/01/12 10:57:29;;;;;;;14.27;10.88;;;;;;;-0.67;55.42;102206.75;5034469;28;20033;-71
2022/01/12 11:00:04;;;;;;;16.77;10.20;;;;;;;-0.22;56.51;102199.69;5034885;28;20078;-72
2022/01/12 11:02:30;;;;;;;17.83;9.90;;;;;;;-0.54;56.58;102184.47;5034402;28;20530;-72
2022/01/12 11:04:58;;;;;;;16.48;11.32;;;;;;;-0.05;57.29;102195.75;5034982;28;20497;-70
2022/01/12 11:07:25;;;;;;;16.27;10.05;;;;;;;-1.19;59.30;102208.00;5031693;28;20450;-71
2022/01/12 11:09:58;;;;;;;15.77;11.35;;;;;;;-0.70;58.82;102185.03;5034858;28;20210;-72
2022/01/12 11:12:24;;;;;;;19.70;10.27;;;;;;;-0.18;57.02;102180.19;5031250;28;20033;-77
2022/01/12 11:14:50;;;;;;;32.58;17.55;;;;;;;-0.49;58.51;102191.75;5034564;28;20488;-75
2022/01/12 11:17:16;;;;;;;20.35;15.35;;;;;;;-1.00;60.21;102194.84;5033096;28;20045;-71
2022/01/12 11:19:57;;;;;;;24.10;15.77;;;;;;;-1.38;62.17;102179.03;5031169;28;20037;-74
2022/01/12 11:22:40;;;;;;;19.27;13.70;;;;;;;-1.30;62.21;102172.81;5034966;28;20047;-72
2022/01/12 11:25:18;;;;;;;18.67;11.13;;;;;;;-0.92;61.05;102197.97;5032889;28;20463;-75
2022/01/12 11:27:44;;;;;;;20.00;12.27;;;;;;;-1.01;61.44;102177.56;5037139;28;20516;-73
2022/01/12 11:30:22;;;;;;;18.75;9.07;;;;;;;-1.19;60.25;102187.41;5034026;28;20051;-71
2022/01/12 11:32:59;;;;;;;19.70;11.70;;;;;;;-0.85;58.95;102197.66;5036026;28;20035;-71
2022/01/12 11:35:30;;;;;;;20.77;10.80;;;;;;;-0.68;59.29;102196.31;5034152;28;20048;-70
2022/01/12 11:37:59;;;;;;;15.85;11.15;;;;;;;-0.58;58.34;102187.63;5033518;28;20037;-70
2022/01/12 11:40:39;;;;;;;19.95;11.45;;;;;;;-0.61;59.48;102179.63;5031291;28;20391;-71
2022/01/12 11:45:25;;;;;;;19.30;9.73;;;;;;;-0.49;59.93;102193.44;5019070;27;20606;-70
2022/01/12 11:47:51;;;;;;;19.27;11.60;;;;;;;-0.33;59.51;102182.53;5071801;28;20040;-71
2022/01/12 11:50:17;;;;;;;14.82;11.43;;;;;;;-0.40;59.69;102182.88;5070399;28;20047;-72
2022/01/12 11:52:42;;;;;;;26.23;13.43;;;;;;;-0.68;60.70;102179.19;5006955;28;20058;-71
2022/01/12 11:55:08;;;;;;;21.35;12.43;;;;;;;-0.23;59.16;102197.91;4989153;28;20541;-72
2022/01/12 11:57:36;;;;;;;24.13;12.07;;;;;;;0.03;58.88;102197.22;5002728;28;20153;-73
2022/01/12 12:00:13;;;;;;;25.67;10.68;;;;;;;0.16;57.72;102205.06;4988487;28;20119;-75
2022/01/12 12:02:44;;;;;;;24.17;15.10;;;;;;;0.18;58.23;102198.28;4982741;28;20035;-71
2022/01/12 12:05:14;;;;;;;21.25;13.75;;;;;;;0.13;58.70;102175.53;4997322;28;20038;-71
2022/01/12 12:08:02;;;;;;;24.27;14.57;;;;;;;-0.14;59.36;102195.09;4989882;27;20043;-72
2022/01/12 12:10:34;;;;;;;16.70;12.30;;;;;;;-0.04;60.14;102187.25;4993437;28;20043;-73
2022/01/12 12:13:00;;;;;;;21.10;14.00;;;;;;;-0.08;60.11;102195.53;4987132;27;20050;-72
2022/01/12 12:15:26;;;;;;;24.73;13.48;;;;;;;-0.17;60.29;102171.66;5010497;28;20029;-71
2022/01/12 12:17:54;;;;;;;19.83;12.90;;;;;;;0.16;60.28;102196.38;4984334;28;20031;-71
2022/01/12 12:20:22;;;;;;;23.55;12.48;;;;;;;-0.37;61.60;102198.59;4962388;28;20047;-70
2022/01/12 12:22:49;;;;;;;25.23;15.23;;;;;;;-0.23;60.41;102172.13;4983773;28;20484;-71
2022/01/12 12:25:21;;;;;;;21.30;14.27;;;;;;;-0.12;61.15;102207.31;4992816;28;20058;-71
2022/01/12 12:27:57;;;;;;;15.45;11.93;;;;;;;0.21;60.57;102176.94;5020429;28;20507;-71
2022/01/12 12:30:24;;;;;;;15.30;12.57;;;;;;;0.28;60.37;102181.78;5069446;28;20040;-72
2022/01/12 12:32:53;;;;;;;20.95;11.98;;;;;;;0.36;61.44;102202.97;5052854;28;20348;-72
2022/01/12 12:35:21;;;;;;;21.98;14.48;;;;;;;0.02;61.87;102184.19;5071737;28;20539;-72
2022/01/12 12:38:17;;;;;;;18.33;11.75;;;;;;;-0.22;62.02;102202.28;5071215;27;20060;-72
2022/01/12 12:40:45;;;;;;;18.60;11.88;;;;;;;-0.04;62.27;102193.28;5055018;28;20105;-72
2022/01/12 12:43:17;;;;;;;19.55;13.05;;;;;;;-0.13;62.91;102197.78;5071020;28;20272;-74
2022/01/12 12:45:48;;;;;;;21.10;13.50;;;;;;;-0.02;62.79;102201.16;5066096;28;20047;-71
2022/01/12 12:48:19;;;;;;;19.52;11.35;;;;;;;-0.19;64.26;102199.03;5069185;28;20036;-76
2022/01/12 12:50:46;;;;;;;20.80;12.43;;;;;;;-0.13;64.81;102192.63;5069811;28;20486;-70
2022/01/12 12:53:12;;;;;;;20.30;12.27;;;;;;;-0.31;65.69;102196.47;5070373;28;20450;-73
2022/01/12 12:55:40;;;;;;;15.57;9.75;;;;;;;-0.13;65.29;102199.47;5062332;28;20060;-72
2022/01/12 12:58:07;;;;;;;18.73;11.43;;;;;;;-0.39;66.28;102171.81;5056593;28;20088;-73
2022/01/12 13:00:33;;;;;;;17.42;11.98;;;;;;;-0.29;65.35;102176.84;5055532;28;20033;-71
2022/01/12 13:03:01;;;;;;;17.00;12.18;;;;;;;0.00;65.62;102202.16;5058062;28;20521;-76